sensor_id;sensor_type;location;lat;lon;timestamp;P1;durP1;ratioP1;P2;durP2;ratioP2
52866;SDS011;38739;53.324;6.862;2022-11-20T00:01:05;23.42;;;14.60;;
52866;SDS011;38739;53.324;6.862;2022-11-20T00:03:50;22.42;;;13.75;;
52866;SDS011;38739;53.324;6.862;2022-11-20T00:06:18;23.85;;;15.13;;
52866;SDS011;38739;53.324;6.862;2022-11-20T00:08:44;24.20;;;15.32;;
52866;SDS011;38739;53.324;6.862;2022-11-20T00:13:43;23.90;;;14.77;;
52866;SDS011;38739;53.324;6.862;2022-11-20T00:16:11;22.40;;;14.52;;
52866;SDS011;38739;53.324;6.862;2022-11-20T00:18:37;23.40;;;14.68;;
52866;SDS011;38739;53.324;6.862;2022-11-20T00:21:07;23.00;;;14.80;;
52866;SDS011;38739;53.324;6.862;2022-11-20T00:23:36;23.50;;;14.70;;
52866;SDS011;38739;53.324;6.862;2022-11-20T00:26:06;23.55;;;15.02;;
52866;SDS011;38739;53.324;6.862;2022-11-20T00:28:33;23.08;;;14.15;;
52866;SDS011;38739;53.324;6.862;2022-11-20T00:31:00;22.70;;;14.23;;
52866;SDS011;38739;53.324;6.862;2022-11-20T00:33:27;23.65;;;14.57;;
52866;SDS011;38739;53.324;6.862;2022-11-20T00:35:56;23.33;;;14.50;;
52866;SDS011;38739;53.324;6.862;2022-11-20T00:38:29;24.20;;;14.20;;
52866;SDS011;38739;53.324;6.862;2022-11-20T00:40:59;22.95;;;14.77;;
52866;SDS011;38739;53.324;6.862;2022-11-20T00:43:27;23.15;;;14.55;;
52866;SDS011;38739;53.324;6.862;2022-11-20T00:46:27;24.77;;;14.65;;
52866;SDS011;38739;53.324;6.862;2022-11-20T00:48:47;22.70;;;14.63;;
52866;SDS011;38739;53.324;6.862;2022-11-20T00:51:13;23.45;;;14.38;;
52866;SDS011;38739;53.324;6.862;2022-11-20T00:53:41;23.85;;;14.45;;
52866;SDS011;38739;53.324;6.862;2022-11-20T00:56:08;23.52;;;14.45;;
52866;SDS011;38739;53.324;6.862;2022-11-20T00:58:36;22.63;;;14.40;;
52866;SDS011;38739;53.324;6.862;2022-11-20T01:01:08;24.00;;;14.93;;
52866;SDS011;38739;53.324;6.862;2022-11-20T01:03:39;21.08;;;13.75;;
52866;SDS011;38739;53.324;6.862;2022-11-20T01:06:07;22.52;;;13.43;;
52866;SDS011;38739;53.324;6.862;2022-11-20T01:08:37;22.08;;;14.02;;
52866;SDS011;38739;53.324;6.862;2022-11-20T01:11:05;22.67;;;14.02;;
52866;SDS011;38739;53.324;6.862;2022-11-20T01:16:06;24.98;;;14.40;;
52866;SDS011;38739;53.324;6.862;2022-11-20T01:18:44;21.35;;;13.95;;
52866;SDS011;38739;53.324;6.862;2022-11-20T01:21:15;21.70;;;13.50;;
52866;SDS011;38739;53.324;6.862;2022-11-20T01:23:52;23.42;;;13.90;;
52866;SDS011;38739;53.324;6.862;2022-11-20T01:26:22;24.88;;;14.38;;
52866;SDS011;38739;53.324;6.862;2022-11-20T01:28:49;21.47;;;13.47;;
52866;SDS011;38739;53.324;6.862;2022-11-20T01:31:16;21.00;;;12.95;;
52866;SDS011;38739;53.324;6.862;2022-11-20T01:33:44;21.70;;;13.48;;
52866;SDS011;38739;53.324;6.862;2022-11-20T01:36:11;23.40;;;13.23;;
52866;SDS011;38739;53.324;6.862;2022-11-20T01:38:38;23.27;;;13.50;;
52866;SDS011;38739;53.324;6.862;2022-11-20T01:41:04;22.83;;;13.02;;
52866;SDS011;38739;53.324;6.862;2022-11-20T01:43:31;20.92;;;13.43;;
52866;SDS011;38739;53.324;6.862;2022-11-20T01:46:01;24.30;;;13.70;;
52866;SDS011;38739;53.324;6.862;2022-11-20T01:51:13;20.90;;;13.10;;
52866;SDS011;38739;53.324;6.862;2022-11-20T01:54:05;22.05;;;12.52;;
52866;SDS011;38739;53.324;6.862;2022-11-20T01:56:36;21.50;;;13.20;;
52866;SDS011;38739;53.324;6.862;2022-11-20T01:59:04;22.35;;;12.52;;
52866;SDS011;38739;53.324;6.862;2022-11-20T02:01:32;22.60;;;12.40;;
52866;SDS011;38739;53.324;6.862;2022-11-20T02:03:58;20.52;;;12.07;;
52866;SDS011;38739;53.324;6.862;2022-11-20T02:06:26;21.23;;;12.35;;
52866;SDS011;38739;53.324;6.862;2022-11-20T02:08:56;18.88;;;11.43;;
52866;SDS011;38739;53.324;6.862;2022-11-20T02:11:22;20.45;;;12.57;;
52866;SDS011;38739;53.324;6.862;2022-11-20T02:13:48;19.67;;;12.55;;
52866;SDS011;38739;53.324;6.862;2022-11-20T02:18:40;20.38;;;11.82;;
52866;SDS011;38739;53.324;6.862;2022-11-20T02:21:13;18.10;;;11.50;;
52866;SDS011;38739;53.324;6.862;2022-11-20T02:26:55;21.80;;;13.77;;
52866;SDS011;38739;53.324;6.862;2022-11-20T02:29:32;21.63;;;12.75;;
52866;SDS011;38739;53.324;6.862;2022-11-20T02:32:24;22.42;;;12.55;;
52866;SDS011;38739;53.324;6.862;2022-11-20T02:34:51;20.50;;;12.45;;
52866;SDS011;38739;53.324;6.862;2022-11-20T02:37:17;20.35;;;12.75;;
52866;SDS011;38739;53.324;6.862;2022-11-20T02:39:44;22.35;;;13.15;;
52866;SDS011;38739;53.324;6.862;2022-11-20T02:42:12;20.63;;;13.07;;
52866;SDS011;38739;53.324;6.862;2022-11-20T02:44:38;21.63;;;12.57;;
52866;SDS011;38739;53.324;6.862;2022-11-20T02:47:04;19.15;;;11.73;;
52866;SDS011;38739;53.324;6.862;2022-11-20T02:49:30;21.75;;;12.82;;
52866;SDS011;38739;53.324;6.862;2022-11-20T02:51:55;19.48;;;12.30;;
52866;SDS011;38739;53.324;6.862;2022-11-20T02:54:22;22.65;;;12.82;;
52866;SDS011;38739;53.324;6.862;2022-11-20T02:56:48;20.02;;;12.50;;
52866;SDS011;38739;53.324;6.862;2022-11-20T02:59:13;19.27;;;11.45;;
52866;SDS011;38739;53.324;6.862;2022-11-20T03:01:39;19.50;;;11.68;;
52866;SDS011;38739;53.324;6.862;2022-11-20T03:04:04;19.77;;;11.43;;
52866;SDS011;38739;53.324;6.862;2022-11-20T03:06:30;17.40;;;11.13;;
52866;SDS011;38739;53.324;6.862;2022-11-20T03:08:56;18.75;;;11.15;;
52866;SDS011;38739;53.324;6.862;2022-11-20T03:11:22;18.02;;;11.35;;
52866;SDS011;38739;53.324;6.862;2022-11-20T03:13:48;19.70;;;11.52;;
52866;SDS011;38739;53.324;6.862;2022-11-20T03:16:18;18.98;;;12.07;;
52866;SDS011;38739;53.324;6.862;2022-11-20T03:18:45;18.65;;;11.52;;
52866;SDS011;38739;53.324;6.862;2022-11-20T03:21:11;17.65;;;11.32;;
52866;SDS011;38739;53.324;6.862;2022-11-20T03:23:38;17.15;;;11.20;;
52866;SDS011;38739;53.324;6.862;2022-11-20T03:26:38;19.15;;;11.48;;
52866;SDS011;38739;53.324;6.862;2022-11-20T03:28:57;17.07;;;11.20;;
52866;SDS011;38739;53.324;6.862;2022-11-20T03:31:29;16.90;;;10.82;;
52866;SDS011;38739;53.324;6.862;2022-11-20T03:34:00;17.35;;;11.32;;
52866;SDS011;38739;53.324;6.862;2022-11-20T03:36:26;17.48;;;11.02;;
52866;SDS011;38739;53.324;6.862;2022-11-20T03:38:53;18.55;;;11.27;;
52866;SDS011;38739;53.324;6.862;2022-11-20T03:41:21;16.95;;;10.23;;
52866;SDS011;38739;53.324;6.862;2022-11-20T03:43:49;18.17;;;10.60;;
52866;SDS011;38739;53.324;6.862;2022-11-20T03:46:16;16.55;;;10.73;;
52866;SDS011;38739;53.324;6.862;2022-11-20T03:48:42;14.52;;;9.73;;
52866;SDS011;38739;53.324;6.862;2022-11-20T03:53:36;17.38;;;10.40;;
52866;SDS011;38739;53.324;6.862;2022-11-20T03:56:03;16.02;;;10.15;;
52866;SDS011;38739;53.324;6.862;2022-11-20T03:58:29;15.75;;;9.65;;
52866;SDS011;38739;53.324;6.862;2022-11-20T04:00:55;16.20;;;10.48;;
52866;SDS011;38739;53.324;6.862;2022-11-20T04:03:20;15.05;;;9.68;;
52866;SDS011;38739;53.324;6.862;2022-11-20T04:05:46;17.65;;;10.50;;
52866;SDS011;38739;53.324;6.862;2022-11-20T04:08:12;17.50;;;10.95;;
52866;SDS011;38739;53.324;6.862;2022-11-20T04:10:37;16.70;;;11.00;;
52866;SDS011;38739;53.324;6.862;2022-11-20T04:13:03;18.85;;;10.90;;
52866;SDS011;38739;53.324;6.862;2022-11-20T04:15:29;18.23;;;11.35;;
52866;SDS011;38739;53.324;6.862;2022-11-20T04:17:55;18.40;;;11.60;;
52866;SDS011;38739;53.324;6.862;2022-11-20T04:20:20;17.75;;;11.30;;
52866;SDS011;38739;53.324;6.862;2022-11-20T04:22:46;18.80;;;11.20;;
52866;SDS011;38739;53.324;6.862;2022-11-20T04:25:12;18.75;;;11.40;;
52866;SDS011;38739;53.324;6.862;2022-11-20T04:27:37;17.52;;;10.75;;
52866;SDS011;38739;53.324;6.862;2022-11-20T04:30:03;17.27;;;10.45;;
52866;SDS011;38739;53.324;6.862;2022-11-20T04:32:32;18.95;;;10.68;;
52866;SDS011;38739;53.324;6.862;2022-11-20T04:34:58;16.23;;;9.73;;
52866;SDS011;38739;53.324;6.862;2022-11-20T04:37:24;17.60;;;10.60;;
52866;SDS011;38739;53.324;6.862;2022-11-20T04:39:50;16.33;;;9.95;;
52866;SDS011;38739;53.324;6.862;2022-11-20T04:42:16;15.65;;;9.88;;
52866;SDS011;38739;53.324;6.862;2022-11-20T04:44:53;17.10;;;10.05;;
52866;SDS011;38739;53.324;6.862;2022-11-20T04:47:19;18.90;;;10.82;;
52866;SDS011;38739;53.324;6.862;2022-11-20T04:49:45;15.50;;;10.18;;
52866;SDS011;38739;53.324;6.862;2022-11-20T04:52:11;16.15;;;9.77;;
52866;SDS011;38739;53.324;6.862;2022-11-20T04:54:36;15.23;;;9.50;;
52866;SDS011;38739;53.324;6.862;2022-11-20T04:57:02;19.85;;;11.10;;
52866;SDS011;38739;53.324;6.862;2022-11-20T04:59:28;24.48;;;10.27;;
52866;SDS011;38739;53.324;6.862;2022-11-20T05:01:53;15.25;;;10.23;;
52866;SDS011;38739;53.324;6.862;2022-11-20T05:04:19;18.92;;;10.77;;
52866;SDS011;38739;53.324;6.862;2022-11-20T05:06:45;16.95;;;10.90;;
52866;SDS011;38739;53.324;6.862;2022-11-20T05:09:11;18.00;;;11.48;;
52866;SDS011;38739;53.324;6.862;2022-11-20T05:11:37;20.15;;;12.02;;
52866;SDS011;38739;53.324;6.862;2022-11-20T05:14:03;17.20;;;11.52;;
52866;SDS011;38739;53.324;6.862;2022-11-20T05:16:28;19.23;;;12.13;;
52866;SDS011;38739;53.324;6.862;2022-11-20T05:18:54;17.70;;;11.68;;
52866;SDS011;38739;53.324;6.862;2022-11-20T05:21:20;18.15;;;11.68;;
52866;SDS011;38739;53.324;6.862;2022-11-20T05:23:47;17.92;;;11.38;;
52866;SDS011;38739;53.324;6.862;2022-11-20T05:26:20;18.85;;;11.85;;
52866;SDS011;38739;53.324;6.862;2022-11-20T05:28:47;18.75;;;12.02;;
52866;SDS011;38739;53.324;6.862;2022-11-20T05:31:14;19.08;;;11.68;;
52866;SDS011;38739;53.324;6.862;2022-11-20T05:33:43;17.60;;;11.35;;
52866;SDS011;38739;53.324;6.862;2022-11-20T05:36:09;18.10;;;10.55;;
52866;SDS011;38739;53.324;6.862;2022-11-20T05:38:36;16.80;;;11.02;;
52866;SDS011;38739;53.324;6.862;2022-11-20T05:41:13;16.48;;;10.40;;
52866;SDS011;38739;53.324;6.862;2022-11-20T05:43:41;16.48;;;10.43;;
52866;SDS011;38739;53.324;6.862;2022-11-20T05:46:08;16.40;;;10.32;;
52866;SDS011;38739;53.324;6.862;2022-11-20T05:48:35;17.92;;;10.88;;
52866;SDS011;38739;53.324;6.862;2022-11-20T05:51:03;16.38;;;10.63;;
52866;SDS011;38739;53.324;6.862;2022-11-20T05:53:31;18.65;;;11.18;;
52866;SDS011;38739;53.324;6.862;2022-11-20T05:55:58;16.58;;;10.40;;
52866;SDS011;38739;53.324;6.862;2022-11-20T05:58:29;18.45;;;11.35;;
52866;SDS011;38739;53.324;6.862;2022-11-20T06:00:58;20.55;;;11.00;;
52866;SDS011;38739;53.324;6.862;2022-11-20T06:03:38;17.63;;;11.38;;
52866;SDS011;38739;53.324;6.862;2022-11-20T06:06:05;17.10;;;11.13;;
52866;SDS011;38739;53.324;6.862;2022-11-20T06:08:31;20.35;;;12.00;;
52866;SDS011;38739;53.324;6.862;2022-11-20T06:10:57;17.27;;;11.25;;
52866;SDS011;38739;53.324;6.862;2022-11-20T06:13:23;18.80;;;11.63;;
52866;SDS011;38739;53.324;6.862;2022-11-20T06:15:52;19.45;;;12.43;;
52866;SDS011;38739;53.324;6.862;2022-11-20T06:18:18;18.60;;;12.05;;
52866;SDS011;38739;53.324;6.862;2022-11-20T06:20:44;20.67;;;12.10;;
52866;SDS011;38739;53.324;6.862;2022-11-20T06:23:11;19.00;;;11.57;;
52866;SDS011;38739;53.324;6.862;2022-11-20T06:25:41;18.77;;;11.68;;
52866;SDS011;38739;53.324;6.862;2022-11-20T06:28:07;19.08;;;12.82;;
52866;SDS011;38739;53.324;6.862;2022-11-20T06:30:35;18.73;;;12.40;;
52866;SDS011;38739;53.324;6.862;2022-11-20T06:33:01;18.45;;;11.88;;
52866;SDS011;38739;53.324;6.862;2022-11-20T06:35:27;21.13;;;12.68;;
52866;SDS011;38739;53.324;6.862;2022-11-20T06:37:53;19.02;;;12.93;;
52866;SDS011;38739;53.324;6.862;2022-11-20T06:40:18;19.00;;;12.50;;
52866;SDS011;38739;53.324;6.862;2022-11-20T06:42:44;19.45;;;12.90;;
52866;SDS011;38739;53.324;6.862;2022-11-20T06:45:10;19.48;;;12.55;;
52866;SDS011;38739;53.324;6.862;2022-11-20T06:47:36;24.75;;;13.43;;
52866;SDS011;38739;53.324;6.862;2022-11-20T06:50:01;20.88;;;12.57;;
52866;SDS011;38739;53.324;6.862;2022-11-20T06:52:27;21.27;;;12.93;;
52866;SDS011;38739;53.324;6.862;2022-11-20T06:54:53;21.02;;;13.27;;
52866;SDS011;38739;53.324;6.862;2022-11-20T06:57:18;21.13;;;13.20;;
52866;SDS011;38739;53.324;6.862;2022-11-20T06:59:44;20.17;;;12.90;;
52866;SDS011;38739;53.324;6.862;2022-11-20T07:02:10;20.35;;;12.57;;
52866;SDS011;38739;53.324;6.862;2022-11-20T07:04:37;20.80;;;12.82;;
52866;SDS011;38739;53.324;6.862;2022-11-20T07:07:03;20.88;;;12.75;;
52866;SDS011;38739;53.324;6.862;2022-11-20T07:09:30;19.75;;;12.57;;
52866;SDS011;38739;53.324;6.862;2022-11-20T07:11:55;21.52;;;13.48;;
52866;SDS011;38739;53.324;6.862;2022-11-20T07:14:21;20.48;;;12.85;;
52866;SDS011;38739;53.324;6.862;2022-11-20T07:16:47;20.35;;;12.95;;
52866;SDS011;38739;53.324;6.862;2022-11-20T07:19:12;19.27;;;12.45;;
52866;SDS011;38739;53.324;6.862;2022-11-20T07:21:38;19.60;;;12.90;;
52866;SDS011;38739;53.324;6.862;2022-11-20T07:24:04;22.08;;;13.77;;
52866;SDS011;38739;53.324;6.862;2022-11-20T07:26:29;21.60;;;13.50;;
52866;SDS011;38739;53.324;6.862;2022-11-20T07:28:55;22.50;;;12.65;;
52866;SDS011;38739;53.324;6.862;2022-11-20T07:31:21;22.42;;;12.98;;
52866;SDS011;38739;53.324;6.862;2022-11-20T07:33:46;20.38;;;13.23;;
52866;SDS011;38739;53.324;6.862;2022-11-20T07:36:12;22.40;;;13.23;;
52866;SDS011;38739;53.324;6.862;2022-11-20T07:38:38;23.88;;;14.15;;
52866;SDS011;38739;53.324;6.862;2022-11-20T07:41:03;20.80;;;13.95;;
52866;SDS011;38739;53.324;6.862;2022-11-20T07:43:29;20.73;;;13.68;;
52866;SDS011;38739;53.324;6.862;2022-11-20T07:45:56;20.98;;;13.32;;
52866;SDS011;38739;53.324;6.862;2022-11-20T07:48:23;22.13;;;14.25;;
52866;SDS011;38739;53.324;6.862;2022-11-20T07:50:49;19.75;;;13.02;;
52866;SDS011;38739;53.324;6.862;2022-11-20T07:53:18;22.52;;;14.25;;
52866;SDS011;38739;53.324;6.862;2022-11-20T07:55:45;23.05;;;12.95;;
52866;SDS011;38739;53.324;6.862;2022-11-20T07:58:11;23.23;;;13.63;;
52866;SDS011;38739;53.324;6.862;2022-11-20T08:00:37;20.98;;;13.85;;
52866;SDS011;38739;53.324;6.862;2022-11-20T08:03:03;21.63;;;13.70;;
52866;SDS011;38739;53.324;6.862;2022-11-20T08:05:29;21.92;;;13.90;;
52866;SDS011;38739;53.324;6.862;2022-11-20T08:07:55;21.98;;;14.00;;
52866;SDS011;38739;53.324;6.862;2022-11-20T08:10:21;20.80;;;14.00;;
52866;SDS011;38739;53.324;6.862;2022-11-20T08:12:47;22.30;;;13.88;;
52866;SDS011;38739;53.324;6.862;2022-11-20T08:15:33;22.05;;;13.80;;
52866;SDS011;38739;53.324;6.862;2022-11-20T08:18:00;20.15;;;13.18;;
52866;SDS011;38739;53.324;6.862;2022-11-20T08:20:26;21.08;;;12.80;;
52866;SDS011;38739;53.324;6.862;2022-11-20T08:22:52;23.27;;;13.25;;
52866;SDS011;38739;53.324;6.862;2022-11-20T08:25:22;20.63;;;13.05;;
52866;SDS011;38739;53.324;6.862;2022-11-20T08:27:47;21.33;;;13.57;;
52866;SDS011;38739;53.324;6.862;2022-11-20T08:30:13;20.00;;;13.55;;
52866;SDS011;38739;53.324;6.862;2022-11-20T08:32:39;23.08;;;13.43;;
52866;SDS011;38739;53.324;6.862;2022-11-20T08:35:05;24.00;;;14.25;;
52866;SDS011;38739;53.324;6.862;2022-11-20T08:37:30;22.35;;;13.20;;
52866;SDS011;38739;53.324;6.862;2022-11-20T08:39:56;22.42;;;13.13;;
52866;SDS011;38739;53.324;6.862;2022-11-20T08:42:22;24.20;;;14.23;;
52866;SDS011;38739;53.324;6.862;2022-11-20T08:44:48;21.90;;;14.25;;
52866;SDS011;38739;53.324;6.862;2022-11-20T08:47:13;21.42;;;14.18;;
52866;SDS011;38739;53.324;6.862;2022-11-20T08:49:39;22.42;;;13.57;;
52866;SDS011;38739;53.324;6.862;2022-11-20T08:52:05;21.17;;;13.15;;
52866;SDS011;38739;53.324;6.862;2022-11-20T08:54:30;20.48;;;12.98;;
52866;SDS011;38739;53.324;6.862;2022-11-20T08:56:56;23.48;;;14.23;;
52866;SDS011;38739;53.324;6.862;2022-11-20T08:59:22;22.65;;;14.88;;
52866;SDS011;38739;53.324;6.862;2022-11-20T09:01:47;23.77;;;14.95;;
52866;SDS011;38739;53.324;6.862;2022-11-20T09:04:13;23.88;;;14.15;;
52866;SDS011;38739;53.324;6.862;2022-11-20T09:06:39;23.95;;;14.15;;
52866;SDS011;38739;53.324;6.862;2022-11-20T09:09:05;19.33;;;12.70;;
52866;SDS011;38739;53.324;6.862;2022-11-20T09:11:31;19.52;;;12.73;;
52866;SDS011;38739;53.324;6.862;2022-11-20T09:13:57;22.30;;;13.05;;
52866;SDS011;38739;53.324;6.862;2022-11-20T09:16:22;21.20;;;13.07;;
52866;SDS011;38739;53.324;6.862;2022-11-20T09:18:49;19.80;;;13.25;;
52866;SDS011;38739;53.324;6.862;2022-11-20T09:21:15;20.58;;;13.00;;
52866;SDS011;38739;53.324;6.862;2022-11-20T09:23:41;20.83;;;12.98;;
52866;SDS011;38739;53.324;6.862;2022-11-20T09:26:09;19.65;;;12.02;;
52866;SDS011;38739;53.324;6.862;2022-11-20T09:28:37;19.98;;;12.50;;
52866;SDS011;38739;53.324;6.862;2022-11-20T09:31:09;19.48;;;12.75;;
52866;SDS011;38739;53.324;6.862;2022-11-20T09:33:49;20.60;;;13.10;;
52866;SDS011;38739;53.324;6.862;2022-11-20T09:36:15;18.52;;;12.80;;
52866;SDS011;38739;53.324;6.862;2022-11-20T09:38:54;19.38;;;12.50;;
52866;SDS011;38739;53.324;6.862;2022-11-20T09:44:32;18.48;;;11.63;;
52866;SDS011;38739;53.324;6.862;2022-11-20T09:52:27;19.92;;;11.32;;
52866;SDS011;38739;53.324;6.862;2022-11-20T09:55:14;18.70;;;11.30;;
52866;SDS011;38739;53.324;6.862;2022-11-20T09:57:42;17.38;;;10.98;;
52866;SDS011;38739;53.324;6.862;2022-11-20T10:00:11;18.45;;;12.48;;
52866;SDS011;38739;53.324;6.862;2022-11-20T10:02:41;20.40;;;11.70;;
52866;SDS011;38739;53.324;6.862;2022-11-20T10:05:21;18.27;;;11.88;;
52866;SDS011;38739;53.324;6.862;2022-11-20T10:07:59;19.33;;;11.45;;
52866;SDS011;38739;53.324;6.862;2022-11-20T10:11:03;17.10;;;11.50;;
52866;SDS011;38739;53.324;6.862;2022-11-20T10:19:05;17.90;;;12.07;;
52866;SDS011;38739;53.324;6.862;2022-11-20T10:24:43;19.85;;;12.52;;
52866;SDS011;38739;53.324;6.862;2022-11-20T10:27:29;18.58;;;12.13;;
52866;SDS011;38739;53.324;6.862;2022-11-20T10:30:02;19.38;;;11.70;;
52866;SDS011;38739;53.324;6.862;2022-11-20T10:32:35;20.25;;;12.80;;
52866;SDS011;38739;53.324;6.862;2022-11-20T10:37:41;18.48;;;11.13;;
52866;SDS011;38739;53.324;6.862;2022-11-20T10:40:33;16.95;;;11.30;;
52866;SDS011;38739;53.324;6.862;2022-11-20T10:45:58;16.15;;;10.55;;
52866;SDS011;38739;53.324;6.862;2022-11-20T10:48:30;16.45;;;11.18;;
52866;SDS011;38739;53.324;6.862;2022-11-20T11:01:45;17.98;;;11.07;;
52866;SDS011;38739;53.324;6.862;2022-11-20T11:04:30;15.80;;;10.55;;
52866;SDS011;38739;53.324;6.862;2022-11-20T11:07:21;15.55;;;10.73;;
52866;SDS011;38739;53.324;6.862;2022-11-20T11:09:55;15.50;;;10.45;;
52866;SDS011;38739;53.324;6.862;2022-11-20T11:12:22;20.00;;;10.85;;
52866;SDS011;38739;53.324;6.862;2022-11-20T11:14:53;14.70;;;10.07;;
52866;SDS011;38739;53.324;6.862;2022-11-20T11:17:28;14.95;;;10.63;;
52866;SDS011;38739;53.324;6.862;2022-11-20T11:20:01;16.30;;;10.00;;
52866;SDS011;38739;53.324;6.862;2022-11-20T11:22:42;15.40;;;9.88;;
52866;SDS011;38739;53.324;6.862;2022-11-20T11:25:18;14.60;;;9.70;;
52866;SDS011;38739;53.324;6.862;2022-11-20T11:28:05;13.32;;;9.35;;
52866;SDS011;38739;53.324;6.862;2022-11-20T11:30:49;15.95;;;9.55;;
52866;SDS011;38739;53.324;6.862;2022-11-20T11:33:22;17.77;;;11.15;;
52866;SDS011;38739;53.324;6.862;2022-11-20T11:35:49;14.60;;;9.55;;
52866;SDS011;38739;53.324;6.862;2022-11-20T11:38:51;15.80;;;10.00;;
52866;SDS011;38739;53.324;6.862;2022-11-20T11:41:12;15.20;;;10.18;;
52866;SDS011;38739;53.324;6.862;2022-11-20T11:43:49;15.73;;;10.63;;
52866;SDS011;38739;53.324;6.862;2022-11-20T11:46:38;13.30;;;9.23;;
52866;SDS011;38739;53.324;6.862;2022-11-20T11:51:39;13.07;;;8.80;;
52866;SDS011;38739;53.324;6.862;2022-11-20T11:54:20;14.93;;;9.70;;
52866;SDS011;38739;53.324;6.862;2022-11-20T11:57:00;13.65;;;9.07;;
52866;SDS011;38739;53.324;6.862;2022-11-20T12:00:31;13.85;;;9.00;;
52866;SDS011;38739;53.324;6.862;2022-11-20T12:08:21;15.27;;;10.35;;
52866;SDS011;38739;53.324;6.862;2022-11-20T12:10:56;14.82;;;10.15;;
52866;SDS011;38739;53.324;6.862;2022-11-20T12:14:15;15.90;;;10.10;;
52866;SDS011;38739;53.324;6.862;2022-11-20T12:16:30;15.52;;;10.00;;
52866;SDS011;38739;53.324;6.862;2022-11-20T12:19:00;14.00;;;10.25;;
52866;SDS011;38739;53.324;6.862;2022-11-20T12:21:30;14.38;;;9.90;;
52866;SDS011;38739;53.324;6.862;2022-11-20T12:24:06;16.60;;;11.18;;
52866;SDS011;38739;53.324;6.862;2022-11-20T12:29:58;18.98;;;11.75;;
52866;SDS011;38739;53.324;6.862;2022-11-20T12:42:58;16.38;;;10.77;;
52866;SDS011;38739;53.324;6.862;2022-11-20T13:05:19;15.38;;;10.77;;
52866;SDS011;38739;53.324;6.862;2022-11-20T13:07:52;15.05;;;9.18;;
52866;SDS011;38739;53.324;6.862;2022-11-20T13:13:13;15.35;;;10.23;;
52866;SDS011;38739;53.324;6.862;2022-11-20T13:15:49;15.70;;;10.38;;
52866;SDS011;38739;53.324;6.862;2022-11-20T13:18:33;13.48;;;9.10;;
52866;SDS011;38739;53.324;6.862;2022-11-20T13:21:13;14.98;;;9.50;;
52866;SDS011;38739;53.324;6.862;2022-11-20T13:24:07;12.65;;;8.60;;
52866;SDS011;38739;53.324;6.862;2022-11-20T13:26:48;12.57;;;8.40;;
52866;SDS011;38739;53.324;6.862;2022-11-20T13:29:27;12.43;;;7.60;;
52866;SDS011;38739;53.324;6.862;2022-11-20T13:32:01;10.90;;;7.32;;
52866;SDS011;38739;53.324;6.862;2022-11-20T13:34:28;11.13;;;7.68;;
52866;SDS011;38739;53.324;6.862;2022-11-20T13:36:55;11.18;;;7.68;;
52866;SDS011;38739;53.324;6.862;2022-11-20T13:39:35;13.25;;;7.93;;
52866;SDS011;38739;53.324;6.862;2022-11-20T13:42:02;10.82;;;7.70;;
52866;SDS011;38739;53.324;6.862;2022-11-20T13:44:55;14.27;;;8.57;;
52866;SDS011;38739;53.324;6.862;2022-11-20T13:47:26;14.13;;;8.82;;
52866;SDS011;38739;53.324;6.862;2022-11-20T13:49:53;12.43;;;8.95;;
52866;SDS011;38739;53.324;6.862;2022-11-20T13:57:44;13.95;;;10.15;;
52866;SDS011;38739;53.324;6.862;2022-11-20T14:00:29;17.98;;;11.32;;
52866;SDS011;38739;53.324;6.862;2022-11-20T14:02:59;17.63;;;10.88;;
52866;SDS011;38739;53.324;6.862;2022-11-20T14:05:30;17.45;;;10.88;;
52866;SDS011;38739;53.324;6.862;2022-11-20T14:08:00;18.27;;;11.48;;
52866;SDS011;38739;53.324;6.862;2022-11-20T14:10:30;19.30;;;12.40;;
52866;SDS011;38739;53.324;6.862;2022-11-20T14:12:56;18.23;;;11.23;;
52866;SDS011;38739;53.324;6.862;2022-11-20T14:15:27;17.23;;;10.40;;
52866;SDS011;38739;53.324;6.862;2022-11-20T14:17:53;18.55;;;11.68;;
52866;SDS011;38739;53.324;6.862;2022-11-20T14:20:18;15.63;;;10.82;;
52866;SDS011;38739;53.324;6.862;2022-11-20T14:22:51;16.80;;;10.75;;
52866;SDS011;38739;53.324;6.862;2022-11-20T14:27:51;18.13;;;11.18;;
52866;SDS011;38739;53.324;6.862;2022-11-20T14:30:23;15.32;;;9.68;;
52866;SDS011;38739;53.324;6.862;2022-11-20T14:32:51;11.43;;;8.50;;
52866;SDS011;38739;53.324;6.862;2022-11-20T14:37:50;12.23;;;7.80;;
52866;SDS011;38739;53.324;6.862;2022-11-20T14:40:25;11.40;;;7.57;;
52866;SDS011;38739;53.324;6.862;2022-11-20T14:42:51;11.98;;;7.45;;
52866;SDS011;38739;53.324;6.862;2022-11-20T14:45:17;10.07;;;7.00;;
52866;SDS011;38739;53.324;6.862;2022-11-20T14:47:44;9.88;;;7.32;;
52866;SDS011;38739;53.324;6.862;2022-11-20T14:50:44;9.35;;;6.88;;
52866;SDS011;38739;53.324;6.862;2022-11-20T14:53:03;9.68;;;6.60;;
52866;SDS011;38739;53.324;6.862;2022-11-20T14:55:33;12.10;;;7.38;;
52866;SDS011;38739;53.324;6.862;2022-11-20T14:58:01;10.68;;;7.10;;
52866;SDS011;38739;53.324;6.862;2022-11-20T15:01:12;10.27;;;7.03;;
52866;SDS011;38739;53.324;6.862;2022-11-20T15:03:39;10.23;;;6.70;;
52866;SDS011;38739;53.324;6.862;2022-11-20T15:06:06;11.25;;;6.80;;
52866;SDS011;38739;53.324;6.862;2022-11-20T15:08:35;9.95;;;6.93;;
52866;SDS011;38739;53.324;6.862;2022-11-20T15:11:01;11.45;;;7.00;;
52866;SDS011;38739;53.324;6.862;2022-11-20T15:15:58;10.10;;;6.40;;
52866;SDS011;38739;53.324;6.862;2022-11-20T15:20:57;9.00;;;6.60;;
52866;SDS011;38739;53.324;6.862;2022-11-20T15:23:27;10.02;;;6.65;;
52866;SDS011;38739;53.324;6.862;2022-11-20T15:25:53;11.60;;;7.78;;
52866;SDS011;38739;53.324;6.862;2022-11-20T15:30:45;12.93;;;7.72;;
52866;SDS011;38739;53.324;6.862;2022-11-20T15:33:12;12.95;;;8.00;;
52866;SDS011;38739;53.324;6.862;2022-11-20T15:35:38;12.35;;;7.88;;
52866;SDS011;38739;53.324;6.862;2022-11-20T15:38:04;12.23;;;7.82;;
52866;SDS011;38739;53.324;6.862;2022-11-20T15:40:30;12.15;;;7.78;;
52866;SDS011;38739;53.324;6.862;2022-11-20T15:42:56;11.20;;;7.60;;
52866;SDS011;38739;53.324;6.862;2022-11-20T15:45:28;11.93;;;6.93;;
52866;SDS011;38739;53.324;6.862;2022-11-20T15:47:57;14.35;;;8.27;;
52866;SDS011;38739;53.324;6.862;2022-11-20T15:50:25;11.45;;;7.57;;
52866;SDS011;38739;53.324;6.862;2022-11-20T15:52:54;11.48;;;7.45;;
52866;SDS011;38739;53.324;6.862;2022-11-20T15:55:20;10.25;;;7.45;;
52866;SDS011;38739;53.324;6.862;2022-11-20T15:57:46;12.15;;;7.88;;
52866;SDS011;38739;53.324;6.862;2022-11-20T16:00:12;11.23;;;7.75;;
52866;SDS011;38739;53.324;6.862;2022-11-20T16:02:38;10.52;;;7.68;;
52866;SDS011;38739;53.324;6.862;2022-11-20T16:05:03;12.82;;;8.32;;
52866;SDS011;38739;53.324;6.862;2022-11-20T16:07:34;12.88;;;8.25;;
52866;SDS011;38739;53.324;6.862;2022-11-20T16:10:00;14.32;;;8.43;;
52866;SDS011;38739;53.324;6.862;2022-11-20T16:12:26;11.85;;;8.05;;
52866;SDS011;38739;53.324;6.862;2022-11-20T16:15:10;14.48;;;8.98;;
52866;SDS011;38739;53.324;6.862;2022-11-20T16:17:54;13.93;;;8.93;;
52866;SDS011;38739;53.324;6.862;2022-11-20T16:20:19;13.13;;;9.05;;
52866;SDS011;38739;53.324;6.862;2022-11-20T16:22:45;13.80;;;9.70;;
52866;SDS011;38739;53.324;6.862;2022-11-20T16:25:11;14.05;;;9.40;;
52866;SDS011;38739;53.324;6.862;2022-11-20T16:27:37;13.32;;;8.90;;
52866;SDS011;38739;53.324;6.862;2022-11-20T16:30:02;12.60;;;8.45;;